To NAV CANADA Home Page Login to a new session Search on AWWS site Feedback and Comments Disclaimer Vers la page française équivalente Tips FAQ What's new on the site To the Forecasts and Observations / NOTAM section To "File a Flight Plan" website Publications and other links Update of the User's profile FIC Telephone Numbers My Weather Data Folder Route Weather Data Regional Weather Data Local Weather Data To the Forecasts and Observations / NOTAM section
Request Generated 03/01/2015 at 23:22:59 UTC . Weather information available at that time is displayed.

METAR/TAF

NATASHQUAN/QC    (show WxCam)

METAR CYNA 012300Z AUTO 22006KT 9SM CLR M09/M11 A3026 RMK SLP246=
METAR CYNA 012200Z AUTO 24007KT 9SM CLR M08/M11 A3028 RMK SLP254=
METAR CYNA 012100Z AUTO 24007KT 9SM CLR M07/M10 A3029 RMK SLP259=

TAF CYNA 011938Z 0120/0208 27012KT P6SM FEW020
BECMG 0123/0201 20010KT
FM020400 17007KT P6SM FEW020 BKN120 TEMPO 0204/0208 BKN020
RMK FCST BASED ON AUTO OBS. NXT FCST BY 020200Z=
Your time UTC time
Weather data provided by Environment Canada and NAV CANADA